Terminal Aerodrome Forecast
Issued by NWS Bismarck, ND

Home | Current Version | Previous Version | Graphics & Text | Print | Product List | Glossary On
Versions: 1 2 3 4 5 6 7 8 9 10 11 12 13 14 15 16 17 18 19 20 21 22 23 24 25 26 27
180
FTUS43 KBIS 251131
TAFBIS
TAF
KBIS 251131Z 2512/2612 05003KT P6SM OVC080
     FM251600 11005KT P6SM VCSH BKN045
     FM252000 17005KT P6SM VCTS BKN050CB
     FM260100 26006KT P6SM OVC060
     FM261000 27006KT P6SM SCT070=

USA.gov is the U.S. government's official web portal to all federal, state and local government web resources and services.